Time;durP1;ratioP1;P1;durP2;ratioP2;P2;SDS_P1;SDS_P2;PMS_P1;PMS_P2;Temp;Humidity;BMP_temperature;BMP_pressure;BME280_temperature;BME280_humidity;BME280_pressure;Samples;Min_cycle;Max_cycle;Signal;HPM_P1;HPM_P2
2023/09/27 00:00:09;;;;;;;7.20;6.30;;;19.00;80.90;;;;;;6124923;23;20222;-83
2023/09/27 00:02:36;;;;;;;6.45;5.85;;;19.00;81.00;;;;;;6124811;23;20139;-83
2023/09/27 00:05:06;;;;;;;6.70;6.05;;;19.00;81.10;;;;;;6125083;23;20189;-80
2023/09/27 00:07:33;;;;;;;6.47;5.88;;;19.00;81.10;;;;;;6150921;22;20144;-84
2023/09/27 00:09:59;;;;;;;7.13;6.43;;;19.00;81.10;;;;;;6150032;23;20151;-84
2023/09/27 00:12:25;;;;;;;6.90;6.20;;;19.00;81.00;;;;;;6100557;23;20579;-84
2023/09/27 00:14:51;;;;;;;7.07;6.38;;;19.00;81.00;;;;;;6124507;23;20187;-82
2023/09/27 00:17:17;;;;;;;6.57;5.93;;;19.10;81.10;;;;;;6125327;23;20139;-82
2023/09/27 00:19:43;;;;;;;7.32;6.63;;;19.00;81.20;;;;;;6151051;22;20582;-80
2023/09/27 00:22:10;;;;;;;7.03;6.32;;;19.00;81.20;;;;;;6100251;23;20159;-80
2023/09/27 00:24:36;;;;;;;7.18;6.40;;;19.00;81.20;;;;;;6101061;23;20624;-81
2023/09/27 00:27:02;;;;;;;7.22;6.53;;;18.90;81.10;;;;;;6150606;22;20598;-83
2023/09/27 00:29:28;;;;;;;7.38;6.47;;;19.00;81.30;;;;;;6150477;22;20653;-84
2023/09/27 00:31:54;;;;;;;7.07;6.38;;;19.00;81.30;;;;;;6150670;22;20132;-80
2023/09/27 00:34:19;;;;;;;7.30;6.55;;;19.00;81.20;;;;;;6100355;23;20179;-82
2023/09/27 00:36:45;;;;;;;7.53;6.72;;;19.00;81.20;;;;;;6124844;23;20223;-83
2023/09/27 00:39:11;;;;;;;6.93;6.10;;;19.00;81.30;;;;;;6124450;23;20332;-81
2023/09/27 00:41:37;;;;;;;6.65;6.05;;;19.00;81.20;;;;;;6150424;22;20628;-83
2023/09/27 00:44:03;;;;;;;6.75;6.05;;;19.00;81.20;;;;;;6150578;22;20159;-83
2023/09/27 00:46:29;;;;;;;7.47;6.60;;;19.00;81.20;;;;;;6150566;23;20197;-82
2023/09/27 00:48:54;;;;;;;6.75;6.10;;;19.00;81.10;;;;;;6124612;23;20151;-81
2023/09/27 00:51:20;;;;;;;6.85;6.15;;;19.00;81.10;;;;;;6099948;23;20537;-81
2023/09/27 00:53:46;;;;;;;6.95;6.25;;;19.00;81.20;;;;;;6125115;23;20144;-79
2023/09/27 00:56:12;;;;;;;6.70;6.00;;;19.10;81.20;;;;;;6151860;22;20171;-82
2023/09/27 00:58:38;;;;;;;7.10;6.40;;;19.00;81.20;;;;;;6126042;23;20136;-82
2023/09/27 01:01:04;;;;;;;6.93;6.22;;;19.00;81.10;;;;;;6151541;22;20187;-84
2023/09/27 01:03:30;;;;;;;7.25;6.55;;;19.10;81.20;;;;;;6151838;22;20258;-79
2023/09/27 01:05:55;;;;;;;6.78;6.07;;;19.00;81.10;;;;;;6151809;22;20705;-84
2023/09/27 01:08:21;;;;;;;7.47;6.55;;;18.90;81.10;;;;;;6124939;23;20482;-83
2023/09/27 01:10:47;;;;;;;6.70;6.00;;;19.00;81.20;;;;;;6126075;23;20197;-83
2023/09/27 01:13:13;;;;;;;7.03;6.32;;;19.00;81.30;;;;;;6125759;23;20136;-82
2023/09/27 01:15:39;;;;;;;6.63;5.93;;;19.00;81.20;;;;;;6101088;23;20214;-81
2023/09/27 01:18:05;;;;;;;7.18;6.47;;;18.90;81.20;;;;;;6125685;23;20151;-81
2023/09/27 01:20:33;;;;;;;7.53;6.65;;;18.90;81.20;;;;;;6151914;22;20167;-81
2023/09/27 01:23:00;;;;;;;6.93;6.22;;;19.00;81.30;;;;;;6101476;23;20143;-80
2023/09/27 01:25:28;;;;;;;7.20;6.50;;;19.00;81.40;;;;;;6125817;23;20962;-83
2023/09/27 01:27:54;;;;;;;7.05;6.35;;;18.90;81.30;;;;;;6151643;22;20187;-83
2023/09/27 01:30:20;;;;;;;7.07;6.38;;;19.00;81.30;;;;;;6151676;22;20157;-80
2023/09/27 01:32:45;;;;;;;7.10;6.40;;;18.90;81.20;;;;;;6125627;23;20579;-84
2023/09/27 01:35:11;;;;;;;6.90;6.20;;;19.00;81.30;;;;;;6151660;22;20171;-82
2023/09/27 01:37:37;;;;;;;7.18;6.47;;;18.90;81.20;;;;;;6126357;23;20468;-84
2023/09/27 01:40:09;;;;;;;6.70;6.00;;;18.90;81.30;;;;;;6125914;23;20488;-83
2023/09/27 01:42:41;;;;;;;7.50;6.70;;;19.00;81.40;;;;;;6128415;23;20143;-80
2023/09/27 01:45:07;;;;;;;7.18;6.47;;;18.90;81.40;;;;;;6108556;23;20242;-80
2023/09/27 01:47:33;;;;;;;6.35;5.68;;;19.00;81.40;;;;;;6131936;23;20132;-79
2023/09/27 01:50:06;;;;;;;6.65;5.95;;;18.90;81.30;;;;;;6108030;23;20154;-79
2023/09/27 01:52:32;;;;;;;6.80;6.10;;;18.90;81.20;;;;;;6059385;23;20160;-83
2023/09/27 01:54:58;;;;;;;7.10;6.07;;;19.00;81.20;;;;;;6126238;23;20242;-79
2023/09/27 01:57:24;;;;;;;6.88;6.18;;;18.90;81.10;;;;;;6152124;22;20206;-82
2023/09/27 01:59:50;;;;;;;7.65;6.40;;;19.00;81.30;;;;;;6151760;22;20163;-81
2023/09/27 02:02:16;;;;;;;7.13;5.93;;;19.00;81.20;;;;;;6125628;23;20136;-83
2023/09/27 02:04:42;;;;;;;7.03;6.32;;;18.90;81.20;;;;;;6151806;22;20175;-82
2023/09/27 02:07:08;;;;;;;6.95;6.15;;;19.00;81.30;;;;;;6101561;23;20460;-81
2023/09/27 02:09:33;;;;;;;6.95;6.00;;;19.00;81.30;;;;;;6125160;23;20170;-84
2023/09/27 02:11:59;;;;;;;6.95;6.25;;;19.00;81.20;;;;;;6125273;23;20135;-85
2023/09/27 02:14:25;;;;;;;7.85;6.80;;;18.90;81.20;;;;;;6151386;22;20143;-83
2023/09/27 02:16:51;;;;;;;7.20;6.50;;;19.00;81.20;;;;;;6125423;23;20178;-81
2023/09/27 02:19:17;;;;;;;6.57;5.97;;;18.90;81.30;;;;;;6125412;23;20154;-85
2023/09/27 02:21:43;;;;;;;7.05;6.35;;;18.90;81.20;;;;;;6125269;23;20162;-81
2023/09/27 02:24:10;;;;;;;7.00;6.30;;;18.90;81.40;;;;;;6125281;23;20151;-83
2023/09/27 02:26:36;;;;;;;7.07;6.28;;;18.90;81.30;;;;;;6151862;22;20225;-82
2023/09/27 02:29:02;;;;;;;7.05;6.35;;;18.90;81.40;;;;;;6120883;22;20194;-83
2023/09/27 02:31:28;;;;;;;6.70;6.03;;;18.90;81.30;;;;;;6120537;23;20156;-82
2023/09/27 02:33:55;;;;;;;7.35;6.53;;;18.90;81.30;;;;;;6120495;23;20163;-81
2023/09/27 02:36:21;;;;;;;6.90;6.20;;;18.90;81.30;;;;;;6121924;23;20168;-80
2023/09/27 02:38:47;;;;;;;7.10;6.40;;;18.90;81.20;;;;;;6121720;23;20215;-83
2023/09/27 02:41:13;;;;;;;6.60;5.90;;;18.90;81.40;;;;;;6120211;23;20190;-84
2023/09/27 02:43:40;;;;;;;6.90;6.20;;;18.90;81.40;;;;;;6121929;23;20137;-81
2023/09/27 02:46:07;;;;;;;6.75;6.03;;;18.90;81.40;;;;;;6121909;23;20564;-80
2023/09/27 02:48:33;;;;;;;6.80;6.07;;;18.90;81.50;;;;;;6120488;23;20800;-81
2023/09/27 02:50:59;;;;;;;6.60;5.90;;;18.80;81.30;;;;;;6121596;23;20141;-80
2023/09/27 02:53:24;;;;;;;6.88;6.18;;;18.90;81.50;;;;;;6096461;23;20182;-84
2023/09/27 02:55:51;;;;;;;6.72;6.03;;;18.90;81.50;;;;;;6120242;23;20187;-80
2023/09/27 02:58:18;;;;;;;7.10;6.40;;;18.90;81.50;;;;;;6120358;23;20152;-83
2023/09/27 03:00:44;;;;;;;7.20;6.38;;;18.90;81.50;;;;;;6121853;23;20139;-81
2023/09/27 03:03:10;;;;;;;6.40;5.75;;;18.90;81.50;;;;;;6120013;23;20152;-81
2023/09/27 03:05:36;;;;;;;6.55;5.85;;;18.90;81.50;;;;;;6095880;23;20159;-82
2023/09/27 03:08:03;;;;;;;7.10;6.35;;;18.90;81.50;;;;;;6119635;23;20249;-82
2023/09/27 03:10:29;;;;;;;7.20;6.50;;;18.90;81.60;;;;;;6096321;23;20162;-83
2023/09/27 03:12:55;;;;;;;7.28;6.40;;;18.80;81.40;;;;;;6120394;23;20622;-82
2023/09/27 03:15:21;;;;;;;7.30;6.28;;;18.90;81.50;;;;;;6121552;23;20275;-80
2023/09/27 03:17:47;;;;;;;6.68;6.00;;;18.90;81.60;;;;;;6120104;23;20148;-83
2023/09/27 03:20:18;;;;;;;6.90;6.05;;;18.80;81.60;;;;;;6120310;23;20132;-83
2023/09/27 03:22:46;;;;;;;6.97;6.28;;;18.80;81.50;;;;;;6120247;23;20483;-83
2023/09/27 03:25:12;;;;;;;6.38;5.78;;;18.80;81.60;;;;;;6121983;23;20218;-79
2023/09/27 03:27:38;;;;;;;6.90;6.20;;;18.80;81.60;;;;;;6124375;22;20140;-82
2023/09/27 03:30:04;;;;;;;7.22;5.95;;;18.90;81.70;;;;;;6125147;23;20531;-83
2023/09/27 03:32:31;;;;;;;7.63;6.28;;;18.80;81.60;;;;;;6076801;23;20156;-81
2023/09/27 03:34:58;;;;;;;6.63;5.95;;;18.80;81.60;;;;;;6124963;23;20175;-82
2023/09/27 03:37:23;;;;;;;6.50;5.90;;;18.90;81.60;;;;;;6125207;23;20144;-80
2023/09/27 03:39:52;;;;;;;6.90;6.20;;;18.80;81.60;;;;;;6124985;23;20459;-84
2023/09/27 03:42:20;;;;;;;7.07;6.13;;;18.90;81.80;;;;;;6151524;22;20585;-81
2023/09/27 03:44:47;;;;;;;6.70;6.00;;;18.90;81.60;;;;;;6125428;23;20628;-81
2023/09/27 03:47:13;;;;;;;6.60;6.00;;;18.90;81.70;;;;;;6125358;23;20152;-84
2023/09/27 03:49:40;;;;;;;6.30;5.70;;;18.80;81.60;;;;;;6125026;23;20460;-80
2023/09/27 03:52:06;;;;;;;6.78;5.95;;;18.80;81.60;;;;;;6124733;23;20202;-80
2023/09/27 03:54:32;;;;;;;6.75;6.00;;;18.80;81.70;;;;;;6100480;23;20159;-80
2023/09/27 03:56:58;;;;;;;6.72;6.03;;;18.80;81.70;;;;;;6124937;23;20587;-79
2023/09/27 03:59:24;;;;;;;7.03;6.18;;;18.80;81.70;;;;;;6076524;23;20151;-80
2023/09/27 04:01:51;;;;;;;7.20;6.22;;;18.80;81.80;;;;;;6124675;23;20142;-81
2023/09/27 04:04:17;;;;;;;6.70;6.00;;;18.80;81.90;;;;;;6100937;23;20164;-84
2023/09/27 04:06:49;;;;;;;6.93;6.22;;;18.80;81.80;;;;;;6151038;22;20214;-83
2023/09/27 04:09:15;;;;;;;7.05;6.35;;;18.80;81.80;;;;;;6051730;23;20201;-83
2023/09/27 04:11:40;;;;;;;7.43;6.32;;;18.80;81.80;;;;;;6100594;23;20587;-83
2023/09/27 04:14:07;;;;;;;7.13;6.15;;;18.90;81.90;;;;;;6124859;23;20147;-82
2023/09/27 04:16:33;;;;;;;6.90;5.97;;;18.80;81.90;;;;;;6150645;22;20178;-81
2023/09/27 04:18:59;;;;;;;6.80;6.10;;;18.80;81.80;;;;;;6124833;23;20222;-84
2023/09/27 04:21:25;;;;;;;7.35;6.40;;;18.80;81.90;;;;;;6124649;23;20150;-80
2023/09/27 04:23:55;;;;;;;6.78;6.00;;;18.80;81.90;;;;;;6150616;22;20143;-82
2023/09/27 04:26:23;;;;;;;6.65;5.95;;;18.80;82.00;;;;;;6101338;23;20152;-80
2023/09/27 04:28:50;;;;;;;7.38;6.47;;;18.70;81.90;;;;;;6151130;22;20203;-81
2023/09/27 04:31:15;;;;;;;6.93;6.05;;;18.80;82.00;;;;;;6151915;23;20163;-83
2023/09/27 04:33:44;;;;;;;7.00;6.30;;;18.80;82.00;;;;;;6126481;23;20599;-81
2023/09/27 04:36:17;;;;;;;6.93;6.22;;;18.80;82.10;;;;;;6102089;23;20170;-81
2023/09/27 04:38:44;;;;;;;7.15;6.30;;;18.80;82.00;;;;;;6151644;23;20562;-83
2023/09/27 04:41:11;;;;;;;6.53;5.82;;;18.80;82.10;;;;;;6101453;23;20152;-83
2023/09/27 04:43:37;;;;;;;7.93;6.15;;;18.80;82.00;;;;;;6101315;23;20139;-81
2023/09/27 04:46:03;;;;;;;7.72;6.60;;;18.80;82.00;;;;;;6125873;23;20142;-85
2023/09/27 04:48:29;;;;;;;7.57;6.40;;;18.80;82.10;;;;;;6125836;23;20190;-81
2023/09/27 04:50:57;;;;;;;6.85;6.15;;;18.80;82.00;;;;;;6101363;23;20222;-83
2023/09/27 04:53:23;;;;;;;6.80;6.10;;;18.80;82.00;;;;;;6126441;23;20142;-83
2023/09/27 04:55:49;;;;;;;6.63;5.90;;;18.80;82.10;;;;;;6151749;22;20163;-84
2023/09/27 04:58:15;;;;;;;7.05;6.15;;;18.80;82.00;;;;;;6101382;23;20140;-82
2023/09/27 05:00:40;;;;;;;7.13;6.43;;;18.80;82.00;;;;;;6125998;23;20139;-82
2023/09/27 05:03:07;;;;;;;7.30;6.45;;;18.80;82.10;;;;;;6125701;23;20467;-83
2023/09/27 05:05:32;;;;;;;7.05;6.35;;;18.80;82.10;;;;;;6152148;22;20218;-80
2023/09/27 05:07:58;;;;;;;6.75;6.05;;;18.80;82.10;;;;;;6076668;23;20909;-81
2023/09/27 05:10:24;;;;;;;6.90;6.13;;;18.80;82.10;;;;;;6125795;23;20193;-81
2023/09/27 05:12:50;;;;;;;6.88;6.18;;;18.80;82.10;;;;;;6125670;23;20144;-80
2023/09/27 05:15:16;;;;;;;7.03;6.10;;;18.80;82.20;;;;;;6125451;23;20198;-80
2023/09/27 05:17:41;;;;;;;6.88;5.90;;;18.70;82.20;;;;;;6125821;23;20723;-82
2023/09/27 05:20:10;;;;;;;7.05;6.28;;;18.80;82.30;;;;;;6101296;23;20567;-84
2023/09/27 05:22:37;;;;;;;6.80;6.10;;;18.70;82.20;;;;;;6126409;23;20139;-83
2023/09/27 05:25:03;;;;;;;7.10;6.20;;;18.80;82.20;;;;;;6101206;23;20148;-83
2023/09/27 05:27:29;;;;;;;7.15;6.30;;;18.80;82.30;;;;;;6101032;22;20156;-82
2023/09/27 05:29:55;;;;;;;6.55;5.85;;;18.80;82.20;;;;;;6151623;22;20181;-80
2023/09/27 05:32:23;;;;;;;7.20;6.28;;;18.80;82.20;;;;;;6151776;22;20136;-80
2023/09/27 05:34:49;;;;;;;6.35;5.75;;;18.80;82.30;;;;;;6101525;23;20214;-83
2023/09/27 05:37:16;;;;;;;7.32;6.53;;;18.80;82.30;;;;;;6125602;23;20210;-80
2023/09/27 05:39:42;;;;;;;5.95;5.30;;;18.80;82.30;;;;;;6125475;23;20599;-82
2023/09/27 05:42:08;;;;;;;5.80;5.20;;;18.80;82.40;;;;;;6101261;23;20143;-81
2023/09/27 05:44:34;;;;;;;6.80;6.00;;;18.90;82.60;;;;;;6151622;22;20132;-84
2023/09/27 05:46:59;;;;;;;6.85;5.93;;;18.90;82.50;;;;;;6125665;23;20217;-84
2023/09/27 05:49:25;;;;;;;7.15;6.00;;;19.00;82.80;;;;;;6151750;22;20139;-82
2023/09/27 05:51:52;;;;;;;6.88;5.78;;;19.00;82.80;;;;;;6126085;23;20507;-82
2023/09/27 05:54:20;;;;;;;6.72;6.03;;;18.90;82.80;;;;;;6101504;23;20147;-80
2023/09/27 05:56:51;;;;;;;6.95;5.25;;;18.90;82.80;;;;;;6151621;22;20216;-84
2023/09/27 05:59:17;;;;;;;6.60;5.63;;;19.00;83.30;;;;;;6151863;22;20128;-82
2023/09/27 06:02:02;;;;;;;6.75;5.93;;;18.90;83.30;;;;;;6101023;23;20586;-82
2023/09/27 06:04:27;;;;;;;6.50;5.47;;;19.00;83.40;;;;;;6079431;23;20159;-82
2023/09/27 06:06:58;;;;;;;7.22;6.05;;;19.00;83.40;;;;;;6150582;22;20563;-82
2023/09/27 06:09:41;;;;;;;7.28;5.97;;;19.00;83.60;;;;;;6100070;23;20186;-82
2023/09/27 06:12:07;;;;;;;6.85;5.95;;;19.00;83.60;;;;;;6192911;23;20152;-83
2023/09/27 06:14:34;;;;;;;9.10;6.57;;;18.90;83.90;;;;;;6066408;23;20152;-81
2023/09/27 06:17:08;;;;;;;7.95;6.10;;;18.90;84.10;;;;;;6090940;23;20232;-83
2023/09/27 06:19:34;;;;;;;7.00;5.93;;;18.90;84.30;;;;;;6128424;23;20158;-82
2023/09/27 06:22:04;;;;;;;8.35;6.32;;;18.90;84.70;;;;;;6154973;23;20615;-82
2023/09/27 06:24:29;;;;;;;7.63;5.97;;;18.80;85.00;;;;;;6130107;23;20151;-85
2023/09/27 06:26:55;;;;;;;7.15;5.72;;;18.90;85.30;;;;;;6128698;23;20182;-84
2023/09/27 06:29:59;;;;;;;7.72;6.40;;;18.80;85.50;;;;;;6128139;23;20223;-85
2023/09/27 06:32:25;;;;;;;7.60;6.32;;;18.80;85.70;;;;;;6044297;23;20153;-87
2023/09/27 06:35:15;;;;;;;7.03;5.88;;;18.80;85.80;;;;;;6020158;23;20185;-87
2023/09/27 06:37:43;;;;;;;8.10;6.38;;;18.80;86.00;;;;;;6068590;23;20153;-86
2023/09/27 06:40:16;;;;;;;7.60;6.03;;;18.80;86.10;;;;;;6044583;23;20199;-87
2023/09/27 06:42:48;;;;;;;7.65;6.07;;;18.80;87.20;;;;;;6039417;23;20183;-87
2023/09/27 06:48:53;;;;;;;;;;;;;;;;;;;;;
2023/09/27 06:58:52;;;;;;;8.18;5.95;;;18.80;87.60;;;;;;5927253;24;20184;-83
2023/09/27 07:01:25;;;;;;;8.77;6.70;;;18.80;87.60;;;;;;5887154;24;20170;-81
2023/09/27 07:04:08;;;;;;;7.93;6.38;;;18.80;88.70;;;;;;5896643;24;20669;-82
2023/09/27 07:06:37;;;;;;;8.45;6.10;;;18.90;87.80;;;;;;5894909;24;20166;-82
2023/09/27 07:09:13;;;;;;;7.75;6.55;;;18.80;87.40;;;;;;5843514;24;20246;-85
2023/09/27 07:11:40;;;;;;;8.20;6.78;;;18.80;87.80;;;;;;5841044;24;20225;-80
2023/09/27 07:14:06;;;;;;;7.72;6.28;;;18.80;87.50;;;;;;5840561;24;20148;-80
2023/09/27 07:16:32;;;;;;;7.63;6.30;;;18.90;87.50;;;;;;5818609;24;20273;-81
2023/09/27 07:19:03;;;;;;;9.65;6.68;;;18.80;87.70;;;;;;5818297;24;20225;-80
2023/09/27 07:21:30;;;;;;;7.57;6.10;;;18.90;88.00;;;;;;5824984;24;20166;-80
2023/09/27 07:23:56;;;;;;;8.52;6.45;;;18.80;88.00;;;;;;5863238;24;20161;-81
2023/09/27 07:26:22;;;;;;;8.35;6.40;;;18.80;88.30;;;;;;5946770;24;20208;-81
2023/09/27 07:28:48;;;;;;;6.63;5.85;;;18.80;88.40;;;;;;5953154;24;20196;-77
2023/09/27 07:31:14;;;;;;;7.25;6.03;;;18.80;88.60;;;;;;5976736;24;20470;-80
2023/09/27 07:33:41;;;;;;;7.75;6.13;;;18.90;88.70;;;;;;5967182;23;20387;-78
2023/09/27 07:36:09;;;;;;;8.15;6.15;;;18.90;88.50;;;;;;6154995;23;20495;-80
2023/09/27 07:38:37;;;;;;;8.85;6.05;;;18.90;88.30;;;;;;6153125;23;20231;-80
2023/09/27 07:41:03;;;;;;;7.47;6.30;;;18.90;88.60;;;;;;6154044;22;20176;-81
2023/09/27 07:43:29;;;;;;;7.50;6.70;;;18.90;88.80;;;;;;6104102;23;20190;-80
2023/09/27 07:45:55;;;;;;;7.70;6.75;;;18.90;88.90;;;;;;6153750;22;20467;-79
2023/09/27 07:48:21;;;;;;;7.80;6.05;;;18.90;89.10;;;;;;6126476;23;20136;-81
2023/09/27 07:50:47;;;;;;;6.63;5.70;;;18.90;89.30;;;;;;6077731;23;20147;-81
2023/09/27 07:53:13;;;;;;;7.55;5.82;;;18.90;89.20;;;;;;6152420;22;20150;-80
2023/09/27 07:55:46;;;;;;;6.90;5.60;;;18.90;89.50;;;;;;6152582;23;20210;-81
2023/09/27 07:58:13;;;;;;;6.93;5.63;;;19.00;89.50;;;;;;6153331;22;20132;-81
2023/09/27 08:00:40;;;;;;;7.25;5.80;;;19.00;89.40;;;;;;6152744;22;20155;-81
2023/09/27 08:03:08;;;;;;;7.05;5.47;;;19.00;89.40;;;;;;6103205;23;20147;-82
2023/09/27 08:08:14;;;;;;;6.90;5.35;;;19.10;89.50;;;;;;6156768;22;20233;-81
2023/09/27 08:10:43;;;;;;;6.85;5.68;;;19.00;89.50;;;;;;6106966;23;20471;-80
2023/09/27 08:13:13;;;;;;;6.90;5.90;;;19.10;89.70;;;;;;6155709;22;20219;-82
2023/09/27 08:15:40;;;;;;;6.60;5.55;;;19.10;89.60;;;;;;6102908;23;20523;-82
2023/09/27 08:18:06;;;;;;;6.15;5.55;;;19.10;89.80;;;;;;6151414;23;20162;-80
2023/09/27 08:20:33;;;;;;;7.13;6.00;;;19.10;89.80;;;;;;6125303;23;20151;-81
2023/09/27 08:22:59;;;;;;;6.15;5.47;;;19.20;89.80;;;;;;6151722;23;20136;-80
2023/09/27 08:25:25;;;;;;;6.15;5.55;;;19.10;89.90;;;;;;6153335;22;20193;-80
2023/09/27 08:27:50;;;;;;;6.35;5.40;;;19.10;89.80;;;;;;6096092;23;20200;-80
2023/09/27 08:30:17;;;;;;;6.60;5.53;;;19.10;89.90;;;;;;6096319;23;20152;-80
2023/09/27 08:32:43;;;;;;;6.80;5.30;;;19.20;89.90;;;;;;6096324;23;20171;-81
2023/09/27 08:35:09;;;;;;;6.90;5.70;;;19.10;90.00;;;;;;6122213;23;20170;-81
2023/09/27 08:37:35;;;;;;;7.63;5.82;;;19.10;90.00;;;;;;6120207;23;20559;-79
2023/09/27 08:40:01;;;;;;;7.18;6.07;;;19.20;90.00;;;;;;6121744;23;20137;-81
2023/09/27 08:42:27;;;;;;;8.38;6.30;;;19.20;90.00;;;;;;6125544;23;20129;-79
2023/09/27 08:44:53;;;;;;;6.63;5.75;;;19.20;90.00;;;;;;6097328;23;20249;-80
2023/09/27 08:47:19;;;;;;;9.02;5.90;;;19.20;90.10;;;;;;6120449;23;20163;-79
2023/09/27 08:49:51;;;;;;;7.55;6.03;;;19.10;90.10;;;;;;6120126;23;20180;-81
2023/09/27 08:52:17;;;;;;;8.10;6.47;;;19.20;90.10;;;;;;6096861;23;20438;-80
2023/09/27 08:54:43;;;;;;;7.63;5.85;;;19.20;90.30;;;;;;6096287;23;20156;-80
2023/09/27 08:57:12;;;;;;;9.02;6.57;;;19.20;90.20;;;;;;6123869;23;20178;-79
2023/09/27 08:59:38;;;;;;;7.07;6.20;;;19.20;90.30;;;;;;6124540;23;20169;-82
2023/09/27 09:02:04;;;;;;;7.88;5.93;;;19.20;90.40;;;;;;6097404;23;20212;-79
2023/09/27 09:04:32;;;;;;;7.28;5.90;;;19.20;90.40;;;;;;6122440;23;20437;-79
2023/09/27 09:07:07;;;;;;;7.30;5.95;;;19.20;90.30;;;;;;6121279;23;20136;-78
2023/09/27 09:09:34;;;;;;;8.40;6.45;;;19.20;90.40;;;;;;6097553;23;20160;-79
2023/09/27 09:12:08;;;;;;;8.07;6.50;;;19.20;90.40;;;;;;6095566;23;20148;-81
2023/09/27 09:14:43;;;;;;;7.68;6.03;;;19.20;90.40;;;;;;6120634;23;20128;-80
2023/09/27 09:17:10;;;;;;;8.73;6.25;;;19.20;90.40;;;;;;6100190;23;20143;-81
2023/09/27 09:19:41;;;;;;;7.47;6.25;;;19.30;90.40;;;;;;6075130;23;20507;-80
2023/09/27 09:22:08;;;;;;;7.50;6.38;;;19.30;90.40;;;;;;6121567;23;20595;-81
2023/09/27 09:24:35;;;;;;;8.15;6.20;;;19.30;90.40;;;;;;6124254;23;20140;-81
2023/09/27 09:27:09;;;;;;;8.13;6.40;;;19.20;90.40;;;;;;6123226;23;20216;-82
2023/09/27 09:29:49;;;;;;;6.97;5.90;;;19.30;90.40;;;;;;6149338;22;20222;-79
2023/09/27 09:32:18;;;;;;;7.70;6.07;;;19.30;90.40;;;;;;6152271;23;20136;-79
2023/09/27 09:34:46;;;;;;;7.70;5.97;;;19.40;90.30;;;;;;6126052;23;20208;-81
2023/09/27 09:37:28;;;;;;;7.60;6.32;;;19.30;90.20;;;;;;6126160;23;20152;-79
2023/09/27 09:40:14;;;;;;;8.23;6.05;;;19.40;90.30;;;;;;6136618;23;20632;-81
2023/09/27 09:42:44;;;;;;;7.60;6.10;;;19.40;90.20;;;;;;6110853;23;20158;-79
2023/09/27 09:45:12;;;;;;;6.88;5.93;;;19.40;90.20;;;;;;6126568;23;20143;-79
2023/09/27 09:47:39;;;;;;;7.07;5.85;;;19.40;90.10;;;;;;6126972;23;20159;-80
2023/09/27 09:50:12;;;;;;;7.13;5.93;;;19.40;90.10;;;;;;6126458;23;20254;-78
2023/09/27 09:52:38;;;;;;;7.03;5.95;;;19.40;90.20;;;;;;6152795;22;20178;-79
2023/09/27 09:55:06;;;;;;;7.38;6.18;;;19.50;90.10;;;;;;6151976;23;20494;-79
2023/09/27 09:57:35;;;;;;;7.32;6.47;;;19.50;90.10;;;;;;6126255;23;20587;-79
2023/09/27 10:00:16;;;;;;;8.70;6.57;;;19.40;90.00;;;;;;6126274;23;20163;-80
2023/09/27 10:02:53;;;;;;;7.25;5.72;;;19.40;90.10;;;;;;6152427;22;20134;-80
2023/09/27 10:05:21;;;;;;;7.38;6.43;;;19.50;90.00;;;;;;6218726;23;20157;-82
2023/09/27 10:07:49;;;;;;;8.60;6.70;;;19.50;90.00;;;;;;6120276;23;20518;-80
2023/09/27 10:10:20;;;;;;;7.43;6.10;;;19.50;90.00;;;;;;6244339;23;20152;-79
2023/09/27 10:12:50;;;;;;;7.25;6.25;;;19.50;90.00;;;;;;6219745;23;20148;-81
2023/09/27 10:15:17;;;;;;;7.60;6.20;;;19.50;89.90;;;;;;6244618;23;20177;-81
2023/09/27 10:17:50;;;;;;;8.25;6.55;;;19.50;90.00;;;;;;6219261;23;20149;-80
2023/09/27 10:20:22;;;;;;;9.20;6.55;;;19.50;90.00;;;;;;6169832;23;20150;-81
2023/09/27 10:22:50;;;;;;;8.07;6.68;;;19.50;90.00;;;;;;6218813;23;20573;-82
2023/09/27 10:25:33;;;;;;;8.38;6.28;;;19.50;90.00;;;;;;6193944;23;20454;-79
2023/09/27 10:28:04;;;;;;;8.27;6.82;;;19.50;90.00;;;;;;6219357;23;20554;-81
2023/09/27 10:31:04;;;;;;;8.98;6.43;;;19.50;90.00;;;;;;6220155;23;20163;-82
2023/09/27 10:33:30;;;;;;;7.38;6.50;;;19.60;89.90;;;;;;6245223;23;20140;-80
2023/09/27 10:36:31;;;;;;;8.27;6.90;;;19.50;89.90;;;;;;6205596;23;20179;-81
2023/09/27 10:39:00;;;;;;;7.45;6.40;;;19.60;89.80;;;;;;6058531;23;20209;-80
2023/09/27 10:41:44;;;;;;;7.50;6.30;;;19.60;89.80;;;;;;6102823;23;20151;-80
2023/09/27 10:44:11;;;;;;;6.50;5.75;;;19.60;89.60;;;;;;6127941;23;20154;-81
2023/09/27 10:46:48;;;;;;;8.32;6.72;;;19.60;89.70;;;;;;6102604;23;20148;-81
2023/09/27 10:49:22;;;;;;;9.50;6.70;;;19.60;89.60;;;;;;6129919;23;20139;-80
2023/09/27 10:51:48;;;;;;;8.40;6.95;;;19.50;89.60;;;;;;6103196;23;20146;-82
2023/09/27 10:54:14;;;;;;;7.47;6.20;;;19.60;89.60;;;;;;6126842;23;20140;-81
2023/09/27 10:56:46;;;;;;;7.65;5.78;;;19.60;89.60;;;;;;6102782;23;20163;-81
2023/09/27 10:59:13;;;;;;;7.63;6.53;;;19.60;89.40;;;;;;6127406;23;20185;-81
2023/09/27 11:01:43;;;;;;;8.60;6.60;;;19.60;89.60;;;;;;6128334;23;20127;-83
2023/09/27 11:05:00;;;;;;;8.90;7.25;;;19.50;89.60;;;;;;6105021;23;20151;-85
2023/09/27 11:08:24;;;;;;;7.97;6.70;;;19.50;89.80;;;;;;6130914;23;20183;-88
2023/09/27 11:50:38;;;;;;;8.20;7.15;;;19.60;89.40;;;;;;6123849;23;20241;-86
2023/09/27 11:53:08;;;;;;;8.13;6.60;;;19.60;89.50;;;;;;6250056;23;20593;-86
2023/09/27 12:12:37;;;;;;;;;;;;;;;;;;;;;
2023/09/27 12:38:49;;;;;;;9.07;6.85;;;19.60;90.10;;;;;;6012023;23;20237;-86
2023/09/27 12:41:17;;;;;;;8.95;6.38;;;19.60;90.10;;;;;;6010730;23;20177;-84
2023/09/27 12:43:45;;;;;;;7.90;6.38;;;19.60;90.10;;;;;;6010954;23;20159;-82
2023/09/27 12:46:16;;;;;;;7.72;6.68;;;19.50;90.10;;;;;;6010762;23;20237;-81
2023/09/27 12:48:44;;;;;;;9.57;6.90;;;19.60;90.10;;;;;;5988016;23;20264;-81
2023/09/27 12:51:10;;;;;;;8.73;7.10;;;19.60;90.20;;;;;;6020316;23;20193;-82
2023/09/27 12:53:38;;;;;;;7.95;6.22;;;19.60;90.10;;;;;;6042260;23;20154;-84
2023/09/27 12:56:05;;;;;;;9.65;6.78;;;19.60;90.20;;;;;;5968420;23;20187;-81
2023/09/27 12:58:31;;;;;;;9.77;7.28;;;19.60;90.20;;;;;;5988089;23;20256;-82
2023/09/27 13:00:56;;;;;;;8.05;6.68;;;19.60;90.20;;;;;;6133128;23;20137;-85
2023/09/27 13:03:22;;;;;;;8.93;7.00;;;19.60;90.20;;;;;;6228999;23;20168;-85
2023/09/27 13:05:49;;;;;;;7.88;6.45;;;19.60;90.20;;;;;;6198706;23;20199;-86
2023/09/27 13:08:15;;;;;;;7.93;6.93;;;19.60;90.20;;;;;;6197361;23;20169;-83
2023/09/27 13:10:40;;;;;;;8.02;6.63;;;19.60;90.30;;;;;;6197917;23;20465;-83
2023/09/27 13:13:06;;;;;;;8.60;6.97;;;19.60;90.30;;;;;;6221064;23;20482;-82
2023/09/27 13:15:36;;;;;;;8.07;6.43;;;19.60;90.30;;;;;;6220946;23;20206;-83
2023/09/27 13:18:02;;;;;;;9.07;6.40;;;19.60;90.30;;;;;;6246030;23;20141;-82
2023/09/27 13:20:27;;;;;;;9.25;6.72;;;19.60;90.30;;;;;;6246356;23;20129;-82
2023/09/27 13:22:53;;;;;;;7.88;6.78;;;19.60;90.30;;;;;;6245962;23;20265;-82
2023/09/27 13:25:19;;;;;;;8.32;6.55;;;19.60;90.30;;;;;;6221344;23;20204;-83
2023/09/27 13:27:45;;;;;;;8.15;6.68;;;19.70;90.20;;;;;;6246902;23;20141;-85
2023/09/27 13:30:11;;;;;;;8.10;6.82;;;19.70;90.20;;;;;;6246612;23;20179;-82
2023/09/27 13:32:37;;;;;;;8.75;6.13;;;19.70;90.40;;;;;;6246664;23;20532;-83
2023/09/27 13:35:05;;;;;;;8.40;6.80;;;19.60;90.40;;;;;;6246924;23;20169;-84
2023/09/27 13:37:31;;;;;;;7.93;6.57;;;19.70;90.00;;;;;;6248015;22;20144;-82
2023/09/27 13:39:59;;;;;;;7.80;6.30;;;19.70;89.90;;;;;;6248944;23;20431;-82
2023/09/27 13:42:25;;;;;;;8.98;7.07;;;19.70;89.80;;;;;;6196775;23;20588;-81
2023/09/27 13:44:51;;;;;;;9.07;6.38;;;19.70;89.80;;;;;;6246750;23;20191;-81
2023/09/27 13:47:18;;;;;;;8.80;7.18;;;19.70;89.60;;;;;;6247213;23;20125;-81
2023/09/27 13:49:44;;;;;;;8.27;6.72;;;19.60;89.70;;;;;;6246886;23;20488;-81
2023/09/27 13:52:11;;;;;;;9.30;6.65;;;19.60;89.50;;;;;;6160198;22;20225;-82
2023/09/27 13:54:37;;;;;;;9.23;6.78;;;19.70;89.40;;;;;;6124952;23;20463;-83
2023/09/27 13:57:02;;;;;;;8.88;6.72;;;19.70;89.50;;;;;;6125200;23;20137;-80
2023/09/27 13:59:28;;;;;;;10.02;7.03;;;19.70;89.40;;;;;;6123679;23;20140;-83
2023/09/27 14:01:54;;;;;;;9.00;6.70;;;19.60;89.30;;;;;;6098171;23;20144;-82
2023/09/27 14:04:20;;;;;;;10.48;7.10;;;19.60;89.30;;;;;;6121931;23;20139;-82
2023/09/27 14:06:46;;;;;;;7.63;6.63;;;19.70;89.30;;;;;;6121318;23;20205;-83
2023/09/27 14:09:11;;;;;;;7.10;6.15;;;19.60;89.20;;;;;;6123368;23;20140;-81
2023/09/27 14:11:45;;;;;;;8.57;6.35;;;19.60;89.00;;;;;;6122519;23;20144;-81
2023/09/27 14:14:13;;;;;;;9.55;6.75;;;19.70;88.90;;;;;;6124365;23;20152;-81
2023/09/27 14:16:39;;;;;;;7.18;6.35;;;19.60;89.10;;;;;;6128389;23;20160;-83
2023/09/27 14:19:16;;;;;;;8.52;7.05;;;19.70;88.90;;;;;;6105141;23;20162;-82
2023/09/27 14:21:43;;;;;;;8.05;6.80;;;19.70;89.10;;;;;;6127686;23;20132;-82
2023/09/27 14:24:13;;;;;;;7.97;6.18;;;19.70;88.80;;;;;;6103026;23;20145;-84
2023/09/27 14:26:43;;;;;;;9.27;6.88;;;19.70;88.90;;;;;;6101969;23;20157;-82